createdAt,value
2022-07-29T00:02:00.934Z,75.59
2022-07-29T00:05:03.752Z,75.90
2022-07-29T00:08:09.378Z,75.63
2022-07-29T00:11:14.432Z,75.58
2022-07-29T00:14:17.277Z,75.82
2022-07-29T00:17:19.512Z,75.30
2022-07-29T00:20:21.863Z,75.75
2022-07-29T00:23:23.899Z,74.78
2022-07-29T00:26:28.694Z,75.21
2022-07-29T00:29:34.078Z,75.17
2022-07-29T00:32:37.184Z,74.76
2022-07-29T00:35:44.991Z,74.86
2022-07-29T00:38:51.349Z,74.63
2022-07-29T00:41:53.480Z,74.74
2022-07-29T00:44:55.821Z,75.24
2022-07-29T00:47:57.879Z,74.64
2022-07-29T00:51:01.390Z,75.95
2022-07-29T00:54:04.677Z,74.77
2022-07-29T00:57:10.056Z,75.50
2022-07-29T01:00:15.738Z,75.91
2022-07-29T01:03:18.066Z,76.85
2022-07-29T01:06:20.298Z,76.90
2022-07-29T01:09:35.926Z,76.98
2022-07-29T01:12:48.082Z,77.12
2022-07-29T01:16:04.556Z,76.57
2022-07-29T01:19:35.311Z,75.96
2022-07-29T01:23:08.261Z,77.21
2022-07-29T01:26:28.437Z,76.75
2022-07-29T01:29:38.832Z,76.16
2022-07-29T01:32:42.034Z,76.30
2022-07-29T01:35:45.328Z,75.90
2022-07-29T01:38:55.678Z,75.41
2022-07-29T01:42:03.175Z,75.97
2022-07-29T01:45:34.004Z,75.39
2022-07-29T01:48:42.052Z,76.92
2022-07-29T01:52:01.865Z,76.69
2022-07-29T01:55:09.849Z,77.94
2022-07-29T01:58:13.341Z,76.44
2022-07-29T02:01:16.973Z,76.26
2022-07-29T02:04:28.965Z,76.30
2022-07-29T02:07:34.058Z,75.44
2022-07-29T02:10:36.808Z,75.13
2022-07-29T02:13:39.546Z,75.69
2022-07-29T02:16:42.120Z,75.58
2022-07-29T02:19:45.432Z,75.17
2022-07-29T02:22:48.375Z,75.28
2022-07-29T02:25:53.541Z,74.19
2022-07-29T02:28:57.822Z,74.14
2022-07-29T02:32:01.784Z,74.42
2022-07-29T02:35:04.866Z,76.07
2022-07-29T02:38:26.240Z,75.94
2022-07-29T02:41:51.547Z,75.90
2022-07-29T02:44:53.939Z,75.97
2022-07-29T02:47:59.444Z,75.83
2022-07-29T02:51:44.057Z,76.67
2022-07-29T02:55:20.648Z,75.42
2022-07-29T02:58:33.856Z,77.05
2022-07-29T03:01:36.639Z,77.30
2022-07-29T03:04:41.779Z,77.21
2022-07-29T03:07:47.747Z,76.10
2022-07-29T03:10:51.928Z,75.44
2022-07-29T03:13:54.041Z,77.00
2022-07-29T03:16:56.589Z,77.37
2022-07-29T03:19:59.825Z,76.88
2022-07-29T03:23:02.047Z,76.99
2022-07-29T03:26:04.198Z,77.68
2022-07-29T03:29:06.776Z,77.42
2022-07-29T03:32:09.187Z,77.59
2022-07-29T03:35:11.613Z,77.77
2022-07-29T03:38:13.666Z,77.54
2022-07-29T03:41:17.107Z,77.99
2022-07-29T03:44:25.929Z,78.13
2022-07-29T03:47:36.830Z,78.04
2022-07-29T03:50:52.318Z,78.35
2022-07-29T03:53:54.707Z,79.52
2022-07-29T03:57:00.822Z,80.62
2022-07-29T04:00:06.263Z,80.72
2022-07-29T04:03:10.750Z,79.96
2022-07-29T04:06:14.255Z,80.48
2022-07-29T04:09:16.257Z,79.78
2022-07-29T04:12:18.552Z,81.38
2022-07-29T04:15:20.813Z,81.58
2022-07-29T04:18:23.029Z,81.02
2022-07-29T04:21:25.309Z,82.69
2022-07-29T04:24:27.794Z,82.94
2022-07-29T04:27:29.858Z,84.47
2022-07-29T04:30:33.130Z,84.65
2022-07-29T04:33:35.133Z,85.19
2022-07-29T04:36:37.420Z,86.65
2022-07-29T04:39:39.436Z,89.74
2022-07-29T04:42:46.339Z,90.83
2022-07-29T04:45:49.392Z,91.81
2022-07-29T04:48:51.907Z,92.15
2022-07-29T04:51:54.383Z,90.24
2022-07-29T04:54:56.771Z,91.83
2022-07-29T04:57:58.989Z,92.25
2022-07-29T05:01:01.333Z,91.19
2022-07-29T05:04:03.518Z,90.75
2022-07-29T05:07:05.878Z,90.19
2022-07-29T05:10:08.662Z,90.36
2022-07-29T05:13:10.925Z,88.91
2022-07-29T05:16:14.296Z,87.61
2022-07-29T05:19:16.814Z,89.58
2022-07-29T05:22:20.073Z,87.13
2022-07-29T05:25:22.657Z,86.93
2022-07-29T05:28:24.608Z,86.74
2022-07-29T05:31:26.874Z,84.47
2022-07-29T05:34:29.206Z,83.66
2022-07-29T05:37:32.050Z,83.35
2022-07-29T05:40:35.141Z,81.90
2022-07-29T05:43:37.288Z,83.13
2022-07-29T05:46:39.456Z,80.74
2022-07-29T05:49:41.932Z,81.17
2022-07-29T05:52:44.010Z,80.39
2022-07-29T05:55:46.324Z,79.23
2022-07-29T05:58:48.358Z,78.39
2022-07-29T06:01:50.659Z,77.41
2022-07-29T06:04:52.856Z,75.07
2022-07-29T06:07:55.133Z,73.69
2022-07-29T06:10:57.228Z,72.20
2022-07-29T06:13:59.514Z,72.10
2022-07-29T06:17:01.664Z,70.00
2022-07-29T06:20:04.700Z,66.22
2022-07-29T06:23:06.994Z,64.46
2022-07-29T06:26:09.737Z,64.95
2022-07-29T06:29:12.038Z,63.29
2022-07-29T06:32:14.534Z,59.63
2022-07-29T06:38:42.073Z,57.79
2022-07-29T06:41:49.995Z,56.24
2022-07-29T06:44:52.293Z,56.45
2022-07-29T06:47:54.399Z,53.06
2022-07-29T06:50:56.673Z,53.62
2022-07-29T06:54:12.865Z,54.48
2022-07-29T06:57:15.257Z,52.53
2022-07-29T07:00:17.400Z,53.16
2022-07-29T07:03:20.176Z,53.87
2022-07-29T07:06:22.238Z,52.01
2022-07-29T07:09:24.563Z,52.62
2022-07-29T07:12:42.309Z,52.26
2022-07-29T07:15:46.358Z,51.80
2022-07-29T07:18:48.478Z,51.98
2022-07-29T07:21:50.739Z,48.05
2022-07-29T07:24:52.795Z,47.31
2022-07-29T07:27:55.387Z,47.35
2022-07-29T07:30:57.417Z,45.89
2022-07-29T07:34:00.059Z,47.28
2022-07-29T07:37:02.089Z,46.57
2022-07-29T07:40:05.533Z,45.65
2022-07-29T07:43:07.651Z,45.47
2022-07-29T07:46:10.067Z,48.46
2022-07-29T07:49:12.320Z,46.04
2022-07-29T07:52:19.572Z,46.89
2022-07-29T07:55:21.776Z,44.57
2022-07-29T07:58:24.006Z,43.74
2022-07-29T08:01:26.126Z,46.35
2022-07-29T08:04:29.480Z,43.77
2022-07-29T08:07:31.896Z,41.25
2022-07-29T08:10:53.113Z,43.12
2022-07-29T08:13:55.697Z,46.24
2022-07-29T08:16:58.259Z,43.81
2022-07-29T08:20:00.348Z,44.79
2022-07-29T08:23:03.755Z,43.25
2022-07-29T08:26:11.235Z,43.32
2022-07-29T08:29:18.350Z,43.27
2022-07-29T08:32:43.463Z,43.19
2022-07-29T08:35:44.095Z,44.98
2022-07-29T08:38:46.420Z,41.18
2022-07-29T08:41:57.411Z,43.63
2022-07-29T08:44:59.937Z,40.48
2022-07-29T08:48:02.247Z,40.89
2022-07-29T08:51:04.910Z,40.68
2022-07-29T08:54:09.594Z,40.60
2022-07-29T08:57:15.184Z,39.93
2022-07-29T09:00:19.399Z,39.59
2022-07-29T09:03:24.685Z,38.93
2022-07-29T09:06:32.409Z,39.41
2022-07-29T09:09:34.697Z,38.38
2022-07-29T09:12:38.155Z,37.64
2022-07-29T09:15:40.346Z,36.12
2022-07-29T09:18:44.877Z,36.25
2022-07-29T09:22:06.224Z,36.64
2022-07-29T09:25:09.091Z,39.29
2022-07-29T09:28:13.724Z,34.74
2022-07-29T09:31:16.244Z,38.88
2022-07-29T09:34:26.603Z,39.35
2022-07-29T09:37:30.105Z,40.76
2022-07-29T09:40:32.117Z,39.46
2022-07-29T09:43:35.096Z,38.10
2022-07-29T09:46:37.432Z,40.05
2022-07-29T09:49:59.418Z,39.87
2022-07-29T09:53:01.567Z,37.31
2022-07-29T09:56:05.232Z,36.91
2022-07-29T09:59:08.970Z,40.20
2022-07-29T10:02:20.319Z,37.21
2022-07-29T10:05:36.106Z,36.00
2022-07-29T10:08:39.314Z,36.28
2022-07-29T10:11:57.203Z,37.54
2022-07-29T10:14:59.490Z,37.07
2022-07-29T10:18:01.552Z,38.63
2022-07-29T10:21:04.067Z,38.64
2022-07-29T10:24:07.216Z,38.31
2022-07-29T10:27:17.444Z,38.07
2022-07-29T10:30:20.638Z,38.04
2022-07-29T10:33:38.450Z,38.50
2022-07-29T10:36:55.340Z,37.61
2022-07-29T10:40:23.309Z,37.76
2022-07-29T10:43:37.097Z,38.34
2022-07-29T10:46:41.886Z,38.00
2022-07-29T10:49:59.145Z,39.73
2022-07-29T10:53:04.920Z,38.64
2022-07-29T10:56:27.625Z,38.34
2022-07-29T10:59:36.362Z,38.01
2022-07-29T11:02:44.693Z,37.93
2022-07-29T11:05:56.815Z,36.97
2022-07-29T11:09:25.916Z,34.93
2022-07-29T11:12:40.222Z,37.23
2022-07-29T11:15:54.820Z,33.43
2022-07-29T11:19:13.627Z,36.48
2022-07-29T11:22:34.977Z,37.39
2022-07-29T11:25:50.237Z,33.28
2022-07-29T11:28:54.273Z,35.24
2022-07-29T11:35:38.479Z,35.25
2022-07-29T11:38:42.611Z,34.61
2022-07-29T11:41:45.081Z,35.96
2022-07-29T11:45:04.401Z,35.47
2022-07-29T11:48:28.333Z,35.87
2022-07-29T11:51:32.990Z,35.51
2022-07-29T11:55:00.762Z,36.50
2022-07-29T11:58:12.036Z,35.80
2022-07-29T12:01:19.648Z,35.29
2022-07-29T12:04:24.482Z,37.56
2022-07-29T12:07:03.208Z,34.25
2022-07-29T12:07:35.159Z,35.06
2022-07-29T12:10:38.812Z,33.99
2022-07-29T12:13:41.022Z,34.88
2022-07-29T12:16:43.412Z,36.74
2022-07-29T12:19:46.231Z,35.01
2022-07-29T12:22:50.247Z,35.33
2022-07-29T12:25:52.348Z,35.51
2022-07-29T12:28:56.719Z,34.75
2022-07-29T12:31:59.622Z,33.14
2022-07-29T12:35:10.225Z,35.72
2022-07-29T12:38:13.491Z,32.88
2022-07-29T12:41:15.945Z,34.86
2022-07-29T12:44:18.075Z,33.69
2022-07-29T12:47:21.465Z,33.79
2022-07-29T12:50:26.436Z,32.54
2022-07-29T12:53:29.374Z,34.50
2022-07-29T12:56:46.829Z,33.79
2022-07-29T13:00:09.879Z,35.24
2022-07-29T13:03:12.010Z,34.75
2022-07-29T13:06:36.029Z,35.30
2022-07-29T13:09:47.137Z,35.53
2022-07-29T13:13:10.481Z,35.94
2022-07-29T13:16:12.855Z,33.79
2022-07-29T13:19:15.200Z,36.63
2022-07-29T13:22:22.389Z,35.47
2022-07-29T13:25:26.947Z,36.04
2022-07-29T13:28:29.025Z,36.43
2022-07-29T13:31:31.498Z,33.96
2022-07-29T13:34:33.597Z,36.33
2022-07-29T13:37:39.188Z,35.49
2022-07-29T13:40:42.092Z,35.97
2022-07-29T13:43:44.908Z,37.03
2022-07-29T13:46:46.990Z,36.33
2022-07-29T13:49:49.539Z,37.08
2022-07-29T13:52:52.173Z,34.46
2022-07-29T13:55:55.857Z,33.63
2022-07-29T13:58:58.207Z,33.65
2022-07-29T14:02:01.185Z,34.91
2022-07-29T14:05:07.985Z,36.02
2022-07-29T14:08:10.987Z,35.02
2022-07-29T14:11:13.026Z,35.55
2022-07-29T14:14:15.393Z,36.46
2022-07-29T14:17:17.855Z,36.94
2022-07-29T14:20:20.257Z,36.19
2022-07-29T14:23:22.397Z,37.29
2022-07-29T14:26:24.817Z,37.49
2022-07-29T14:29:37.247Z,36.13
2022-07-29T14:32:40.908Z,37.08
2022-07-29T14:35:42.994Z,35.64
2022-07-29T14:38:45.271Z,37.03
2022-07-29T14:41:47.373Z,37.86
2022-07-29T14:44:50.235Z,37.72
2022-07-29T14:47:56.379Z,34.73
2022-07-29T14:51:04.568Z,36.16
2022-07-29T14:54:07.274Z,35.36
2022-07-29T14:57:09.680Z,35.28
2022-07-29T15:00:12.464Z,35.39
2022-07-29T15:03:22.835Z,36.91
2022-07-29T15:06:27.037Z,37.12
2022-07-29T15:09:29.380Z,34.89
2022-07-29T15:12:32.193Z,37.44
2022-07-29T15:15:34.543Z,36.29
2022-07-29T15:18:38.624Z,35.05
2022-07-29T15:21:48.230Z,37.31
2022-07-29T15:24:51.136Z,36.08
2022-07-29T15:27:56.627Z,35.53
2022-07-29T15:31:01.332Z,37.90
2022-07-29T15:34:06.252Z,35.45
2022-07-29T15:37:08.545Z,35.86
2022-07-29T15:40:11.736Z,36.31
2022-07-29T15:43:13.985Z,36.46
2022-07-29T15:46:36.982Z,36.91
2022-07-29T15:49:48.560Z,37.38
2022-07-29T15:52:51.926Z,36.79
2022-07-29T15:55:53.972Z,38.22
2022-07-29T15:58:56.404Z,37.46
2022-07-29T16:01:58.502Z,37.58
2022-07-29T16:05:00.757Z,37.40
2022-07-29T16:08:02.882Z,37.82
2022-07-29T16:11:05.172Z,37.21
2022-07-29T16:14:07.768Z,35.80
2022-07-29T16:17:14.231Z,35.74
2022-07-29T16:20:17.592Z,37.77
2022-07-29T16:23:19.848Z,36.58
2022-07-29T16:26:21.832Z,36.36
2022-07-29T16:29:24.494Z,35.96
2022-07-29T16:32:26.823Z,36.56
2022-07-29T16:35:39.550Z,38.10
2022-07-29T16:38:47.284Z,36.69
2022-07-29T16:41:49.906Z,36.19
2022-07-29T16:44:51.943Z,37.53
2022-07-29T16:47:59.881Z,37.33
2022-07-29T16:51:02.382Z,37.64
2022-07-29T16:54:04.962Z,37.88
2022-07-29T16:57:07.214Z,36.49
2022-07-29T17:00:10.410Z,36.85
2022-07-29T17:03:12.785Z,38.82
2022-07-29T17:06:15.863Z,38.87
2022-07-29T17:09:17.992Z,37.14
2022-07-29T17:12:20.257Z,38.67
2022-07-29T17:15:22.275Z,38.31
2022-07-29T17:18:24.571Z,37.27
2022-07-29T17:21:28.042Z,38.68
2022-07-29T17:24:30.785Z,40.16
2022-07-29T17:27:33.156Z,40.15
2022-07-29T17:30:35.444Z,39.59
2022-07-29T17:33:37.481Z,40.45
2022-07-29T17:36:40.061Z,40.61
2022-07-29T17:39:43.185Z,41.63
2022-07-29T17:42:45.465Z,41.70
2022-07-29T17:45:50.132Z,41.77
2022-07-29T17:48:54.673Z,42.95
2022-07-29T17:52:00.739Z,42.25
2022-07-29T17:55:03.764Z,43.83
2022-07-29T17:58:08.790Z,45.04
2022-07-29T18:01:11.298Z,46.37
2022-07-29T18:04:15.243Z,46.97
2022-07-29T18:07:17.698Z,48.01
2022-07-29T18:10:19.723Z,48.06
2022-07-29T18:13:22.156Z,47.87
2022-07-29T18:16:24.828Z,47.54
2022-07-29T18:19:27.285Z,48.79
2022-07-29T18:22:29.317Z,48.08
2022-07-29T18:25:32.105Z,47.96
2022-07-29T18:28:34.229Z,48.28
2022-07-29T18:31:36.643Z,48.74
2022-07-29T18:34:38.684Z,46.57
2022-07-29T18:38:02.168Z,49.14
2022-07-29T18:41:03.021Z,49.58
2022-07-29T18:44:05.747Z,49.95
2022-07-29T18:47:08.343Z,48.44
2022-07-29T18:50:14.683Z,50.75
2022-07-29T18:53:17.273Z,51.91
2022-07-29T18:56:19.467Z,51.82
2022-07-29T18:59:21.567Z,50.51
2022-07-29T19:02:24.252Z,51.81
2022-07-29T19:05:26.986Z,51.92
2022-07-29T19:08:29.401Z,51.71
2022-07-29T19:11:31.713Z,53.03
2022-07-29T19:14:34.096Z,51.71
2022-07-29T19:17:36.395Z,52.54
2022-07-29T19:20:40.135Z,52.54
2022-07-29T19:24:05.243Z,53.97
2022-07-29T19:27:05.755Z,53.67
2022-07-29T19:30:09.495Z,54.51
2022-07-29T19:33:14.564Z,55.18
2022-07-29T19:36:17.279Z,56.02
2022-07-29T19:39:35.350Z,55.65
2022-07-29T19:42:38.271Z,56.27
2022-07-29T19:45:40.945Z,56.94
2022-07-29T19:48:43.909Z,56.77
2022-07-29T19:51:46.250Z,56.77
2022-07-29T19:54:48.654Z,56.80
2022-07-29T19:57:52.860Z,57.24
2022-07-29T20:00:56.115Z,58.94
2022-07-29T20:04:02.112Z,56.74
2022-07-29T20:07:04.873Z,57.55
2022-07-29T20:10:10.055Z,57.94
2022-07-29T20:13:13.798Z,59.36
2022-07-29T20:16:16.029Z,57.81
2022-07-29T20:19:21.535Z,58.73
2022-07-29T20:22:27.876Z,58.83
2022-07-29T20:25:31.631Z,58.83
2022-07-29T20:28:34.286Z,58.98
2022-07-29T20:31:37.250Z,59.37
2022-07-29T20:34:43.190Z,58.78
2022-07-29T20:37:52.175Z,59.78
2022-07-29T20:41:02.447Z,58.79
2022-07-29T20:44:04.916Z,59.74
2022-07-29T20:47:07.701Z,60.48
2022-07-29T20:50:10.957Z,60.77
2022-07-29T20:53:13.730Z,60.29
2022-07-29T20:56:15.928Z,60.70
2022-07-29T20:59:18.414Z,60.86
2022-07-29T21:02:20.502Z,60.48
2022-07-29T21:05:23.469Z,60.46
2022-07-29T21:08:26.212Z,61.89
2022-07-29T21:11:44.193Z,61.20
2022-07-29T21:14:47.952Z,62.05
2022-07-29T21:17:52.527Z,61.89
2022-07-29T21:20:55.472Z,60.99
2022-07-29T21:23:57.653Z,62.18
2022-07-29T21:27:21.139Z,62.21
2022-07-29T21:30:23.957Z,61.93
2022-07-29T21:33:27.656Z,61.47
2022-07-29T21:39:52.111Z,62.50
2022-07-29T21:42:54.514Z,63.04
2022-07-29T21:45:57.550Z,62.69
2022-07-29T21:49:00.189Z,63.40
2022-07-29T21:52:02.269Z,62.22
2022-07-29T21:55:04.828Z,63.24
2022-07-29T21:58:07.070Z,61.61
2022-07-29T22:01:09.994Z,61.87
2022-07-29T22:04:12.243Z,62.42
2022-07-29T22:07:14.608Z,62.22
2022-07-29T22:10:16.750Z,63.25
2022-07-29T22:13:19.049Z,62.68
2022-07-29T22:16:21.126Z,63.06
2022-07-29T22:19:27.700Z,63.51
2022-07-29T22:22:33.118Z,63.95
2022-07-29T22:25:35.892Z,62.77
2022-07-29T22:28:38.059Z,62.95
2022-07-29T22:31:40.387Z,61.16
2022-07-29T22:34:42.533Z,61.11
2022-07-29T22:37:45.002Z,63.71
2022-07-29T22:40:48.743Z,62.04
2022-07-29T22:43:53.151Z,63.38
2022-07-29T22:46:55.910Z,61.43
2022-07-29T22:49:58.173Z,62.26
2022-07-29T22:53:00.132Z,62.33
2022-07-29T22:56:02.521Z,63.67
2022-07-29T22:59:04.781Z,61.59
2022-07-29T23:02:07.150Z,61.16
2022-07-29T23:05:10.263Z,61.45
2022-07-29T23:08:12.642Z,61.09
2022-07-29T23:11:14.757Z,61.56
2022-07-29T23:14:17.016Z,60.56
2022-07-29T23:17:19.376Z,60.83
2022-07-29T23:20:21.762Z,61.44
2022-07-29T23:23:24.302Z,61.92
2022-07-29T23:26:28.107Z,61.57
2022-07-29T23:29:34.955Z,61.89
2022-07-29T23:32:38.894Z,61.50
2022-07-29T23:35:40.949Z,61.63
2022-07-29T23:38:44.232Z,61.67
2022-07-29T23:41:46.344Z,62.33
2022-07-29T23:44:48.967Z,62.51
2022-07-29T23:47:51.191Z,64.07
2022-07-29T23:50:53.663Z,65.19
2022-07-29T23:53:56.058Z,64.38
2022-07-29T23:56:58.819Z,66.10
